Loei, Thailand

11:23 AM ICT on July 25, 2016 (GMT +0700)
Loei | | Change Station

Elev 833 ft 17.45 °N, 101.73 °E | Updated 23 minutes ago

Partly Cloudy
Partly Cloudy
88 °F
Feels Like 96 °F
N
9
Wind Variable Wind from North

Today
High -- | Low -- °F
--% Chance of Precip.
Yesterday
High -- | Low -- °F
Precip. -- in
Pressure 29.86 in
Visibility 6.2 miles
Clouds Few 3200 ft
Heat Index 96 °F
Dew Point 73 °F
Humidity 62%
Rainfall 0.00 in
Snow Depth Not available.
5:50 AM 6:48 PM
Waning Gibbous, 70% visible
METAR VTUL 250400Z 36008KT 330V030 9999 FEW032 31/23 Q1011
Pressure 29.86 in
Visibility 6.2 miles
Clouds Few 3200 ft
Heat Index 96 °F
Dew Point 73 °F
Humidity 62%
Rainfall 0.00 in
Snow Depth Not available.
5:50 AM 6:48 PM
Waning Gibbous, 70% visible
METAR VTUL 250400Z 36008KT 330V030 9999 FEW032 31/23 Q1011

10-Day Weather Forecast

No radar image for this location.
×

Almanac

Astronomy

Jul. 25, 2016 Rise Set
Actual Time
Civil Twilight
Nautical Twilight
Astronomical Twilight
Moon
Length of Visible Light
Length of Day
Tomorrow will be .
, % of the Moon is Illuminated

Today's Extremes

Country Highs Country Lows

Community

WunderPhotos

Upload Photos

1,927,264 photos uploaded!

WunderBlog® & News

Nearby

Air Quality

  Air Quality AQ Index Pollutant
Not available.

Snow Depth

Station Depth Elevation

Earthquake Activity

City Distance Mag. Time & Date
Minimum magnitude displayed is 2.5.

Coastal Water Temperatures

Place Temperature

Stations

Nearby Weather Stations

Station Location Temp. Windchill Dew Point Humidity Wind Precip. Elev Updated Type